sensor_id;sensor_type;location;lat;lon;timestamp;temperature;humidity
9201;DHT22;4635;48.686;9.008;2022-07-06T00:00:08;17.60;1.00
9201;DHT22;4635;48.686;9.008;2022-07-06T00:02:36;17.60;1.00
9201;DHT22;4635;48.686;9.008;2022-07-06T00:05:03;17.60;1.00
9201;DHT22;4635;48.686;9.008;2022-07-06T00:07:30;17.60;1.00
9201;DHT22;4635;48.686;9.008;2022-07-06T00:09:57;17.60;1.00
9201;DHT22;4635;48.686;9.008;2022-07-06T00:12:25;17.50;1.00
9201;DHT22;4635;48.686;9.008;2022-07-06T00:14:53;17.50;1.00
9201;DHT22;4635;48.686;9.008;2022-07-06T00:17:20;17.50;1.00
9201;DHT22;4635;48.686;9.008;2022-07-06T00:19:47;17.50;1.00
9201;DHT22;4635;48.686;9.008;2022-07-06T00:22:14;17.50;1.00
9201;DHT22;4635;48.686;9.008;2022-07-06T00:24:41;17.50;25.90
9201;DHT22;4635;48.686;9.008;2022-07-06T00:27:08;17.40;1.00
9201;DHT22;4635;48.686;9.008;2022-07-06T00:29:35;17.30;24.80
9201;DHT22;4635;48.686;9.008;2022-07-06T00:32:04;17.30;1.00
9201;DHT22;4635;48.686;9.008;2022-07-06T00:34:31;17.20;1.00
9201;DHT22;4635;48.686;9.008;2022-07-06T00:36:58;17.20;1.00
9201;DHT22;4635;48.686;9.008;2022-07-06T00:39:24;17.10;8.80
9201;DHT22;4635;48.686;9.008;2022-07-06T00:41:55;17.00;1.00
9201;DHT22;4635;48.686;9.008;2022-07-06T00:44:22;17.10;18.20
9201;DHT22;4635;48.686;9.008;2022-07-06T00:46:49;17.10;99.90
9201;DHT22;4635;48.686;9.008;2022-07-06T00:49:18;17.10;99.90
9201;DHT22;4635;48.686;9.008;2022-07-06T00:52:03;17.10;99.90
9201;DHT22;4635;48.686;9.008;2022-07-06T00:54:31;17.00;99.90
9201;DHT22;4635;48.686;9.008;2022-07-06T00:56:59;17.00;79.80
9201;DHT22;4635;48.686;9.008;2022-07-06T00:59:27;17.00;99.90
9201;DHT22;4635;48.686;9.008;2022-07-06T01:01:55;17.00;1.00
9201;DHT22;4635;48.686;9.008;2022-07-06T01:04:23;17.00;99.90
9201;DHT22;4635;48.686;9.008;2022-07-06T01:06:50;17.00;99.90
9201;DHT22;4635;48.686;9.008;2022-07-06T01:09:17;17.00;99.90
9201;DHT22;4635;48.686;9.008;2022-07-06T01:11:44;16.90;1.00
9201;DHT22;4635;48.686;9.008;2022-07-06T01:14:12;16.80;1.00
9201;DHT22;4635;48.686;9.008;2022-07-06T01:16:40;16.70;1.00
9201;DHT22;4635;48.686;9.008;2022-07-06T01:19:07;16.70;99.90
9201;DHT22;4635;48.686;9.008;2022-07-06T01:21:37;16.60;99.90
9201;DHT22;4635;48.686;9.008;2022-07-06T01:24:04;16.60;99.90
9201;DHT22;4635;48.686;9.008;2022-07-06T01:26:31;16.60;99.90
9201;DHT22;4635;48.686;9.008;2022-07-06T01:28:59;16.60;99.90
9201;DHT22;4635;48.686;9.008;2022-07-06T01:31:26;16.60;9.50
9201;DHT22;4635;48.686;9.008;2022-07-06T01:33:55;16.60;99.90
9201;DHT22;4635;48.686;9.008;2022-07-06T01:36:22;16.60;99.90
9201;DHT22;4635;48.686;9.008;2022-07-06T01:38:53;16.60;1.00
9201;DHT22;4635;48.686;9.008;2022-07-06T01:41:20;16.60;1.00
9201;DHT22;4635;48.686;9.008;2022-07-06T01:43:47;16.60;1.00
9201;DHT22;4635;48.686;9.008;2022-07-06T01:46:14;16.60;1.00
9201;DHT22;4635;48.686;9.008;2022-07-06T01:48:42;16.50;1.00
9201;DHT22;4635;48.686;9.008;2022-07-06T01:51:09;16.50;1.00
9201;DHT22;4635;48.686;9.008;2022-07-06T01:53:37;16.40;1.00
9201;DHT22;4635;48.686;9.008;2022-07-06T01:56:06;16.40;1.00
9201;DHT22;4635;48.686;9.008;2022-07-06T01:58:33;16.40;1.00
9201;DHT22;4635;48.686;9.008;2022-07-06T02:01:01;16.40;1.00
9201;DHT22;4635;48.686;9.008;2022-07-06T02:03:33;16.40;1.00
9201;DHT22;4635;48.686;9.008;2022-07-06T02:05:59;16.30;1.00
9201;DHT22;4635;48.686;9.008;2022-07-06T02:08:27;16.30;1.00
9201;DHT22;4635;48.686;9.008;2022-07-06T02:10:53;16.30;1.00
9201;DHT22;4635;48.686;9.008;2022-07-06T02:13:22;16.30;1.00
9201;DHT22;4635;48.686;9.008;2022-07-06T02:15:49;16.30;1.00
9201;DHT22;4635;48.686;9.008;2022-07-06T02:18:16;16.30;1.00
9201;DHT22;4635;48.686;9.008;2022-07-06T02:20:43;16.30;1.00
9201;DHT22;4635;48.686;9.008;2022-07-06T02:23:10;16.30;1.00
9201;DHT22;4635;48.686;9.008;2022-07-06T02:25:37;16.30;1.00
9201;DHT22;4635;48.686;9.008;2022-07-06T02:28:04;16.20;1.00
9201;DHT22;4635;48.686;9.008;2022-07-06T02:30:33;16.20;1.00
9201;DHT22;4635;48.686;9.008;2022-07-06T02:33:00;16.20;27.60
9201;DHT22;4635;48.686;9.008;2022-07-06T02:35:27;16.10;28.60
9201;DHT22;4635;48.686;9.008;2022-07-06T02:37:54;16.10;24.10
9201;DHT22;4635;48.686;9.008;2022-07-06T02:40:21;16.10;76.70
9201;DHT22;4635;48.686;9.008;2022-07-06T02:42:48;16.10;99.90
9201;DHT22;4635;48.686;9.008;2022-07-06T02:45:15;16.10;99.90
9201;DHT22;4635;48.686;9.008;2022-07-06T02:47:44;16.00;99.90
9201;DHT22;4635;48.686;9.008;2022-07-06T02:50:11;16.00;1.00
9201;DHT22;4635;48.686;9.008;2022-07-06T02:52:38;15.90;1.00
9201;DHT22;4635;48.686;9.008;2022-07-06T02:55:06;15.90;1.00
9201;DHT22;4635;48.686;9.008;2022-07-06T02:57:33;15.80;99.90
9201;DHT22;4635;48.686;9.008;2022-07-06T03:00:00;15.80;1.00
9201;DHT22;4635;48.686;9.008;2022-07-06T03:02:26;15.80;99.90
9201;DHT22;4635;48.686;9.008;2022-07-06T03:04:56;15.70;99.90
9201;DHT22;4635;48.686;9.008;2022-07-06T03:07:23;15.70;1.00
9201;DHT22;4635;48.686;9.008;2022-07-06T03:09:50;15.60;1.00
9201;DHT22;4635;48.686;9.008;2022-07-06T03:12:17;15.60;1.00
9201;DHT22;4635;48.686;9.008;2022-07-06T03:14:44;15.60;1.00
9201;DHT22;4635;48.686;9.008;2022-07-06T03:17:14;15.50;1.00
9201;DHT22;4635;48.686;9.008;2022-07-06T03:19:41;15.50;99.90
9201;DHT22;4635;48.686;9.008;2022-07-06T03:22:09;15.50;1.00
9201;DHT22;4635;48.686;9.008;2022-07-06T03:24:36;15.50;1.00
9201;DHT22;4635;48.686;9.008;2022-07-06T03:27:03;15.50;1.00
9201;DHT22;4635;48.686;9.008;2022-07-06T03:29:31;15.50;99.90
9201;DHT22;4635;48.686;9.008;2022-07-06T03:31:58;15.40;99.90
9201;DHT22;4635;48.686;9.008;2022-07-06T03:34:25;15.30;1.00
9201;DHT22;4635;48.686;9.008;2022-07-06T03:36:52;15.30;1.00
9201;DHT22;4635;48.686;9.008;2022-07-06T03:39:20;15.20;99.90
9201;DHT22;4635;48.686;9.008;2022-07-06T03:41:47;15.10;99.90
9201;DHT22;4635;48.686;9.008;2022-07-06T03:44:14;15.10;99.90
9201;DHT22;4635;48.686;9.008;2022-07-06T03:46:41;15.00;1.00
9201;DHT22;4635;48.686;9.008;2022-07-06T03:49:08;15.00;99.90
9201;DHT22;4635;48.686;9.008;2022-07-06T03:51:35;14.90;1.00
9201;DHT22;4635;48.686;9.008;2022-07-06T03:54:03;15.00;1.00
9201;DHT22;4635;48.686;9.008;2022-07-06T03:56:31;14.90;1.00
9201;DHT22;4635;48.686;9.008;2022-07-06T03:58:59;14.90;1.00
9201;DHT22;4635;48.686;9.008;2022-07-06T04:01:30;14.90;99.90
9201;DHT22;4635;48.686;9.008;2022-07-06T04:03:57;14.90;1.00
9201;DHT22;4635;48.686;9.008;2022-07-06T04:06:25;14.90;1.00
9201;DHT22;4635;48.686;9.008;2022-07-06T04:08:52;14.80;99.90
9201;DHT22;4635;48.686;9.008;2022-07-06T04:11:19;14.80;1.00
9201;DHT22;4635;48.686;9.008;2022-07-06T04:13:48;14.80;1.00
9201;DHT22;4635;48.686;9.008;2022-07-06T04:16:15;14.80;1.00
9201;DHT22;4635;48.686;9.008;2022-07-06T04:18:42;14.80;99.90
9201;DHT22;4635;48.686;9.008;2022-07-06T04:21:09;14.80;99.90
9201;DHT22;4635;48.686;9.008;2022-07-06T04:23:36;14.80;1.00
9201;DHT22;4635;48.686;9.008;2022-07-06T04:26:03;14.80;99.90
9201;DHT22;4635;48.686;9.008;2022-07-06T04:28:30;14.80;99.90
9201;DHT22;4635;48.686;9.008;2022-07-06T04:30:58;14.80;1.00
9201;DHT22;4635;48.686;9.008;2022-07-06T04:33:25;14.90;1.00
9201;DHT22;4635;48.686;9.008;2022-07-06T04:35:52;14.90;1.00
9201;DHT22;4635;48.686;9.008;2022-07-06T04:38:20;14.90;1.00
9201;DHT22;4635;48.686;9.008;2022-07-06T04:40:47;14.90;99.90
9201;DHT22;4635;48.686;9.008;2022-07-06T04:43:14;14.90;99.90
9201;DHT22;4635;48.686;9.008;2022-07-06T04:45:41;14.90;13.50
9201;DHT22;4635;48.686;9.008;2022-07-06T04:48:12;14.90;1.00
9201;DHT22;4635;48.686;9.008;2022-07-06T04:50:39;15.00;91.30
9201;DHT22;4635;48.686;9.008;2022-07-06T04:53:06;15.00;99.90
9201;DHT22;4635;48.686;9.008;2022-07-06T04:55:33;15.00;99.90
9201;DHT22;4635;48.686;9.008;2022-07-06T04:58:00;15.10;99.90
9201;DHT22;4635;48.686;9.008;2022-07-06T05:00:30;15.20;1.00
9201;DHT22;4635;48.686;9.008;2022-07-06T05:02:57;15.30;99.90
9201;DHT22;4635;48.686;9.008;2022-07-06T05:05:26;15.30;99.90
9201;DHT22;4635;48.686;9.008;2022-07-06T05:07:53;15.40;1.00
9201;DHT22;4635;48.686;9.008;2022-07-06T05:10:20;15.50;1.00
9201;DHT22;4635;48.686;9.008;2022-07-06T05:12:47;15.60;99.90
9201;DHT22;4635;48.686;9.008;2022-07-06T05:15:14;15.80;99.90
9201;DHT22;4635;48.686;9.008;2022-07-06T05:17:41;15.70;99.90
9201;DHT22;4635;48.686;9.008;2022-07-06T05:20:08;15.70;1.00
9201;DHT22;4635;48.686;9.008;2022-07-06T05:22:36;15.70;1.00
9201;DHT22;4635;48.686;9.008;2022-07-06T05:25:04;15.70;1.00
9201;DHT22;4635;48.686;9.008;2022-07-06T05:27:31;15.80;99.90
9201;DHT22;4635;48.686;9.008;2022-07-06T05:29:59;15.80;1.00
9201;DHT22;4635;48.686;9.008;2022-07-06T05:32:26;15.80;1.00
9201;DHT22;4635;48.686;9.008;2022-07-06T05:34:53;15.90;99.90
9201;DHT22;4635;48.686;9.008;2022-07-06T05:37:20;16.00;51.40
9201;DHT22;4635;48.686;9.008;2022-07-06T05:39:49;16.10;1.00
9201;DHT22;4635;48.686;9.008;2022-07-06T05:42:16;16.40;1.00
9201;DHT22;4635;48.686;9.008;2022-07-06T05:44:43;17.00;1.00
9201;DHT22;4635;48.686;9.008;2022-07-06T05:47:10;17.40;99.90
9201;DHT22;4635;48.686;9.008;2022-07-06T05:49:54;17.60;99.90
9201;DHT22;4635;48.686;9.008;2022-07-06T05:52:39;17.50;99.90
9201;DHT22;4635;48.686;9.008;2022-07-06T05:55:10;18.50;1.00
9201;DHT22;4635;48.686;9.008;2022-07-06T05:57:40;19.30;54.80
9201;DHT22;4635;48.686;9.008;2022-07-06T06:00:08;19.40;90.30
9201;DHT22;4635;48.686;9.008;2022-07-06T06:02:39;18.60;94.00
9201;DHT22;4635;48.686;9.008;2022-07-06T06:05:08;18.10;97.70
9201;DHT22;4635;48.686;9.008;2022-07-06T06:07:35;17.70;99.90
9201;DHT22;4635;48.686;9.008;2022-07-06T06:10:22;17.50;99.90
9201;DHT22;4635;48.686;9.008;2022-07-06T06:12:50;17.30;99.90
9201;DHT22;4635;48.686;9.008;2022-07-06T06:15:17;17.30;99.90
9201;DHT22;4635;48.686;9.008;2022-07-06T06:17:44;17.40;99.90
9201;DHT22;4635;48.686;9.008;2022-07-06T06:20:13;17.40;99.90
9201;DHT22;4635;48.686;9.008;2022-07-06T06:22:51;17.30;99.90
9201;DHT22;4635;48.686;9.008;2022-07-06T06:25:27;17.30;99.90
9201;DHT22;4635;48.686;9.008;2022-07-06T06:27:54;17.30;99.90
9201;DHT22;4635;48.686;9.008;2022-07-06T06:30:22;17.30;99.90
9201;DHT22;4635;48.686;9.008;2022-07-06T06:32:49;17.30;99.90
9201;DHT22;4635;48.686;9.008;2022-07-06T06:35:22;17.40;99.90
9201;DHT22;4635;48.686;9.008;2022-07-06T06:37:49;17.30;99.90
9201;DHT22;4635;48.686;9.008;2022-07-06T06:40:30;17.40;99.90
9201;DHT22;4635;48.686;9.008;2022-07-06T06:43:05;17.50;99.90
9201;DHT22;4635;48.686;9.008;2022-07-06T06:45:33;17.70;99.90
9201;DHT22;4635;48.686;9.008;2022-07-06T06:48:04;17.80;99.90
9201;DHT22;4635;48.686;9.008;2022-07-06T06:50:31;17.90;99.90
9201;DHT22;4635;48.686;9.008;2022-07-06T06:52:59;17.90;99.90
9201;DHT22;4635;48.686;9.008;2022-07-06T06:55:31;17.90;99.90
9201;DHT22;4635;48.686;9.008;2022-07-06T06:57:59;17.90;99.90
9201;DHT22;4635;48.686;9.008;2022-07-06T07:00:26;18.00;99.90
9201;DHT22;4635;48.686;9.008;2022-07-06T07:02:56;17.90;99.80
9201;DHT22;4635;48.686;9.008;2022-07-06T07:05:24;18.10;99.40
9201;DHT22;4635;48.686;9.008;2022-07-06T07:07:55;18.20;98.80
9201;DHT22;4635;48.686;9.008;2022-07-06T07:10:27;18.40;98.30
9201;DHT22;4635;48.686;9.008;2022-07-06T07:12:59;18.60;97.60
9201;DHT22;4635;48.686;9.008;2022-07-06T07:15:39;18.40;97.10
9201;DHT22;4635;48.686;9.008;2022-07-06T07:18:10;18.40;97.00
9201;DHT22;4635;48.686;9.008;2022-07-06T07:20:40;18.40;96.70
9201;DHT22;4635;48.686;9.008;2022-07-06T07:23:11;18.60;95.80
9201;DHT22;4635;48.686;9.008;2022-07-06T07:25:40;18.70;92.80
9201;DHT22;4635;48.686;9.008;2022-07-06T07:28:12;18.80;92.70
9201;DHT22;4635;48.686;9.008;2022-07-06T07:30:52;19.00;92.10
9201;DHT22;4635;48.686;9.008;2022-07-06T07:33:26;19.10;86.50
9201;DHT22;4635;48.686;9.008;2022-07-06T07:35:57;18.90;86.90
9201;DHT22;4635;48.686;9.008;2022-07-06T07:38:27;18.90;87.70
9201;DHT22;4635;48.686;9.008;2022-07-06T07:40:56;19.10;85.20
9201;DHT22;4635;48.686;9.008;2022-07-06T07:43:29;19.20;84.50
9201;DHT22;4635;48.686;9.008;2022-07-06T07:45:57;19.30;83.20
9201;DHT22;4635;48.686;9.008;2022-07-06T07:48:27;19.40;83.00
9201;DHT22;4635;48.686;9.008;2022-07-06T07:50:57;19.60;81.70
9201;DHT22;4635;48.686;9.008;2022-07-06T07:53:27;19.80;81.00
9201;DHT22;4635;48.686;9.008;2022-07-06T07:56:12;19.90;79.30
9201;DHT22;4635;48.686;9.008;2022-07-06T07:58:52;19.80;77.70
9201;DHT22;4635;48.686;9.008;2022-07-06T08:01:23;19.70;79.60
9201;DHT22;4635;48.686;9.008;2022-07-06T08:04:02;19.80;80.20
9201;DHT22;4635;48.686;9.008;2022-07-06T08:06:39;19.90;78.30
9201;DHT22;4635;48.686;9.008;2022-07-06T08:09:13;20.10;78.10
9201;DHT22;4635;48.686;9.008;2022-07-06T08:11:45;20.30;76.20
9201;DHT22;4635;48.686;9.008;2022-07-06T08:14:18;20.40;75.70
9201;DHT22;4635;48.686;9.008;2022-07-06T08:16:48;20.50;74.50
9201;DHT22;4635;48.686;9.008;2022-07-06T08:19:22;20.50;73.90
9201;DHT22;4635;48.686;9.008;2022-07-06T08:21:50;20.70;73.40
9201;DHT22;4635;48.686;9.008;2022-07-06T08:24:18;20.80;73.00
9201;DHT22;4635;48.686;9.008;2022-07-06T08:26:45;20.80;72.00
9201;DHT22;4635;48.686;9.008;2022-07-06T08:29:18;20.90;71.30
9201;DHT22;4635;48.686;9.008;2022-07-06T08:31:51;22.10;65.70
9201;DHT22;4635;48.686;9.008;2022-07-06T08:34:18;23.70;56.10
9201;DHT22;4635;48.686;9.008;2022-07-06T08:36:48;25.00;48.20
9201;DHT22;4635;48.686;9.008;2022-07-06T08:39:20;25.70;40.70
9201;DHT22;4635;48.686;9.008;2022-07-06T08:41:55;26.60;31.70
9201;DHT22;4635;48.686;9.008;2022-07-06T08:44:25;26.80;26.10
9201;DHT22;4635;48.686;9.008;2022-07-06T08:46:57;27.20;22.20
9201;DHT22;4635;48.686;9.008;2022-07-06T08:49:27;27.20;17.90
9201;DHT22;4635;48.686;9.008;2022-07-06T08:52:08;27.30;13.60
9201;DHT22;4635;48.686;9.008;2022-07-06T08:54:37;27.50;11.60
9201;DHT22;4635;48.686;9.008;2022-07-06T08:57:10;27.50;11.80
9201;DHT22;4635;48.686;9.008;2022-07-06T08:59:45;27.70;10.00
9201;DHT22;4635;48.686;9.008;2022-07-06T09:02:15;27.60;8.20
9201;DHT22;4635;48.686;9.008;2022-07-06T09:04:49;28.40;5.80
9201;DHT22;4635;48.686;9.008;2022-07-06T09:07:27;28.90;3.40
9201;DHT22;4635;48.686;9.008;2022-07-06T09:10:11;29.10;1.00
9201;DHT22;4635;48.686;9.008;2022-07-06T09:13:01;29.20;1.00
9201;DHT22;4635;48.686;9.008;2022-07-06T09:15:37;29.50;1.00
9201;DHT22;4635;48.686;9.008;2022-07-06T09:18:18;29.20;1.00
9201;DHT22;4635;48.686;9.008;2022-07-06T09:20:48;29.50;1.00
9201;DHT22;4635;48.686;9.008;2022-07-06T09:23:42;28.60;1.00
9201;DHT22;4635;48.686;9.008;2022-07-06T09:26:24;28.90;1.00
9201;DHT22;4635;48.686;9.008;2022-07-06T09:29:07;29.40;1.00
9201;DHT22;4635;48.686;9.008;2022-07-06T09:32:02;29.60;1.00
9201;DHT22;4635;48.686;9.008;2022-07-06T09:34:42;29.80;1.00
9201;DHT22;4635;48.686;9.008;2022-07-06T09:37:15;28.90;1.00
9201;DHT22;4635;48.686;9.008;2022-07-06T09:43:12;26.00;1.00
9201;DHT22;4635;48.686;9.008;2022-07-06T09:45:49;26.00;1.00
9201;DHT22;4635;48.686;9.008;2022-07-06T09:48:23;27.20;1.00
9201;DHT22;4635;48.686;9.008;2022-07-06T09:50:55;28.70;1.00
9201;DHT22;4635;48.686;9.008;2022-07-06T09:53:37;29.80;1.00
9201;DHT22;4635;48.686;9.008;2022-07-06T09:56:41;29.80;1.00
9201;DHT22;4635;48.686;9.008;2022-07-06T09:59:18;28.80;1.00
9201;DHT22;4635;48.686;9.008;2022-07-06T10:01:57;28.10;1.00
9201;DHT22;4635;48.686;9.008;2022-07-06T10:04:48;28.00;1.00
9201;DHT22;4635;48.686;9.008;2022-07-06T10:07:19;29.20;1.00
9201;DHT22;4635;48.686;9.008;2022-07-06T10:10:39;30.30;1.00
9201;DHT22;4635;48.686;9.008;2022-07-06T10:13:40;30.90;1.00
9201;DHT22;4635;48.686;9.008;2022-07-06T10:16:22;29.10;1.00
9201;DHT22;4635;48.686;9.008;2022-07-06T10:19:15;27.90;1.00
9201;DHT22;4635;48.686;9.008;2022-07-06T10:25:15;26.30;1.00
9201;DHT22;4635;48.686;9.008;2022-07-06T10:27:50;27.20;1.00
9201;DHT22;4635;48.686;9.008;2022-07-06T10:30:26;26.60;1.00
9201;DHT22;4635;48.686;9.008;2022-07-06T10:33:02;25.80;1.00
9201;DHT22;4635;48.686;9.008;2022-07-06T10:35:42;25.80;1.00
9201;DHT22;4635;48.686;9.008;2022-07-06T10:38:18;25.20;1.00
9201;DHT22;4635;48.686;9.008;2022-07-06T10:41:02;26.10;1.00
9201;DHT22;4635;48.686;9.008;2022-07-06T10:43:43;26.40;1.00
9201;DHT22;4635;48.686;9.008;2022-07-06T10:46:12;26.30;1.00
9201;DHT22;4635;48.686;9.008;2022-07-06T10:48:44;27.00;1.00
9201;DHT22;4635;48.686;9.008;2022-07-06T10:51:25;27.60;1.00
9201;DHT22;4635;48.686;9.008;2022-07-06T10:54:01;29.00;1.00
9201;DHT22;4635;48.686;9.008;2022-07-06T10:56:38;29.40;1.00
9201;DHT22;4635;48.686;9.008;2022-07-06T10:59:12;29.30;1.00
9201;DHT22;4635;48.686;9.008;2022-07-06T11:04:46;29.90;1.00
9201;DHT22;4635;48.686;9.008;2022-07-06T11:07:48;31.10;1.00
9201;DHT22;4635;48.686;9.008;2022-07-06T11:13:25;33.60;1.00
9201;DHT22;4635;48.686;9.008;2022-07-06T11:16:00;34.20;1.00
9201;DHT22;4635;48.686;9.008;2022-07-06T11:18:39;34.40;1.00
9201;DHT22;4635;48.686;9.008;2022-07-06T11:21:17;32.60;1.00
9201;DHT22;4635;48.686;9.008;2022-07-06T11:23:49;30.00;1.00
9201;DHT22;4635;48.686;9.008;2022-07-06T11:26:31;29.10;1.00
9201;DHT22;4635;48.686;9.008;2022-07-06T11:29:10;28.70;1.00
9201;DHT22;4635;48.686;9.008;2022-07-06T11:31:40;29.10;1.00
9201;DHT22;4635;48.686;9.008;2022-07-06T11:34:11;28.80;1.00
9201;DHT22;4635;48.686;9.008;2022-07-06T11:36:43;28.70;1.00
9201;DHT22;4635;48.686;9.008;2022-07-06T11:39:15;28.80;1.00
9201;DHT22;4635;48.686;9.008;2022-07-06T11:41:48;28.10;1.00
9201;DHT22;4635;48.686;9.008;2022-07-06T11:44:28;27.50;1.00
9201;DHT22;4635;48.686;9.008;2022-07-06T11:46:57;27.10;1.00
9201;DHT22;4635;48.686;9.008;2022-07-06T11:49:32;26.40;1.00
9201;DHT22;4635;48.686;9.008;2022-07-06T11:52:15;26.50;1.00
9201;DHT22;4635;48.686;9.008;2022-07-06T11:55:08;27.20;1.00
9201;DHT22;4635;48.686;9.008;2022-07-06T11:57:53;27.60;1.00
9201;DHT22;4635;48.686;9.008;2022-07-06T12:00:29;27.30;1.00
9201;DHT22;4635;48.686;9.008;2022-07-06T12:03:00;27.40;1.00
9201;DHT22;4635;48.686;9.008;2022-07-06T12:05:35;27.30;1.00
9201;DHT22;4635;48.686;9.008;2022-07-06T12:08:06;27.90;1.00
9201;DHT22;4635;48.686;9.008;2022-07-06T12:10:37;27.70;1.00
9201;DHT22;4635;48.686;9.008;2022-07-06T12:13:26;28.30;1.00
9201;DHT22;4635;48.686;9.008;2022-07-06T12:16:11;28.70;1.00
9201;DHT22;4635;48.686;9.008;2022-07-06T12:18:50;28.90;1.00
9201;DHT22;4635;48.686;9.008;2022-07-06T12:21:43;29.50;1.00
9201;DHT22;4635;48.686;9.008;2022-07-06T12:24:23;29.90;1.00
9201;DHT22;4635;48.686;9.008;2022-07-06T12:26:54;30.20;1.00
9201;DHT22;4635;48.686;9.008;2022-07-06T12:29:24;31.20;1.00
9201;DHT22;4635;48.686;9.008;2022-07-06T12:31:55;32.20;1.00
9201;DHT22;4635;48.686;9.008;2022-07-06T12:34:37;32.80;1.00
9201;DHT22;4635;48.686;9.008;2022-07-06T12:37:09;32.40;1.00
9201;DHT22;4635;48.686;9.008;2022-07-06T12:39:45;32.30;1.00
9201;DHT22;4635;48.686;9.008;2022-07-06T12:42:14;32.80;1.00
9201;DHT22;4635;48.686;9.008;2022-07-06T12:44:44;33.10;1.00
9201;DHT22;4635;48.686;9.008;2022-07-06T12:47:19;33.30;1.00
9201;DHT22;4635;48.686;9.008;2022-07-06T12:50:04;33.00;1.00
9201;DHT22;4635;48.686;9.008;2022-07-06T12:52:36;32.80;1.00
9201;DHT22;4635;48.686;9.008;2022-07-06T12:55:15;31.60;1.00
9201;DHT22;4635;48.686;9.008;2022-07-06T12:57:44;30.10;1.00
9201;DHT22;4635;48.686;9.008;2022-07-06T13:00:14;28.60;1.00
9201;DHT22;4635;48.686;9.008;2022-07-06T13:02:55;27.10;1.00
9201;DHT22;4635;48.686;9.008;2022-07-06T13:05:26;26.30;1.00
9201;DHT22;4635;48.686;9.008;2022-07-06T13:08:09;25.70;1.00
9201;DHT22;4635;48.686;9.008;2022-07-06T13:10:46;26.30;1.00
9201;DHT22;4635;48.686;9.008;2022-07-06T13:13:16;26.60;1.00
9201;DHT22;4635;48.686;9.008;2022-07-06T13:15:45;26.10;1.00
9201;DHT22;4635;48.686;9.008;2022-07-06T13:18:19;25.70;1.00
9201;DHT22;4635;48.686;9.008;2022-07-06T13:20:54;25.40;1.00
9201;DHT22;4635;48.686;9.008;2022-07-06T13:23:36;25.10;1.00
9201;DHT22;4635;48.686;9.008;2022-07-06T13:26:20;24.80;1.00
9201;DHT22;4635;48.686;9.008;2022-07-06T13:28:52;26.20;1.00
9201;DHT22;4635;48.686;9.008;2022-07-06T13:31:21;28.60;1.00
9201;DHT22;4635;48.686;9.008;2022-07-06T13:34:18;30.70;1.00
9201;DHT22;4635;48.686;9.008;2022-07-06T13:36:46;31.70;1.00
9201;DHT22;4635;48.686;9.008;2022-07-06T13:39:33;31.80;1.00
9201;DHT22;4635;48.686;9.008;2022-07-06T13:45:09;27.50;1.00
9201;DHT22;4635;48.686;9.008;2022-07-06T13:47:49;26.50;1.00
9201;DHT22;4635;48.686;9.008;2022-07-06T13:50:22;26.60;1.00
9201;DHT22;4635;48.686;9.008;2022-07-06T13:52:58;27.00;1.00
9201;DHT22;4635;48.686;9.008;2022-07-06T13:55:33;26.70;1.00
9201;DHT22;4635;48.686;9.008;2022-07-06T13:58:05;26.40;1.00
9201;DHT22;4635;48.686;9.008;2022-07-06T14:03:52;26.30;1.00
9201;DHT22;4635;48.686;9.008;2022-07-06T14:06:41;27.20;1.00
9201;DHT22;4635;48.686;9.008;2022-07-06T14:09:13;28.40;1.00
9201;DHT22;4635;48.686;9.008;2022-07-06T14:11:48;28.20;1.00
9201;DHT22;4635;48.686;9.008;2022-07-06T14:14:42;27.70;1.00
9201;DHT22;4635;48.686;9.008;2022-07-06T14:17:27;27.10;1.00
9201;DHT22;4635;48.686;9.008;2022-07-06T14:20:09;25.80;1.00
9201;DHT22;4635;48.686;9.008;2022-07-06T14:22:44;25.20;1.00
9201;DHT22;4635;48.686;9.008;2022-07-06T14:25:34;24.80;1.00
9201;DHT22;4635;48.686;9.008;2022-07-06T14:28:34;24.60;1.00
9201;DHT22;4635;48.686;9.008;2022-07-06T14:31:27;24.50;1.00
9201;DHT22;4635;48.686;9.008;2022-07-06T14:33:59;24.30;1.00
9201;DHT22;4635;48.686;9.008;2022-07-06T14:36:32;24.50;1.00
9201;DHT22;4635;48.686;9.008;2022-07-06T14:39:20;24.40;1.00
9201;DHT22;4635;48.686;9.008;2022-07-06T14:41:48;24.30;1.00
9201;DHT22;4635;48.686;9.008;2022-07-06T14:44:28;24.30;1.00
9201;DHT22;4635;48.686;9.008;2022-07-06T14:46:57;24.20;1.00
9201;DHT22;4635;48.686;9.008;2022-07-06T14:49:56;24.10;1.00
9201;DHT22;4635;48.686;9.008;2022-07-06T14:52:49;24.30;1.00
9201;DHT22;4635;48.686;9.008;2022-07-06T14:55:48;24.20;1.00
9201;DHT22;4635;48.686;9.008;2022-07-06T14:58:21;24.20;1.00
9201;DHT22;4635;48.686;9.008;2022-07-06T15:01:07;24.30;1.00
9201;DHT22;4635;48.686;9.008;2022-07-06T15:04:02;25.10;1.00
9201;DHT22;4635;48.686;9.008;2022-07-06T15:06:31;25.30;1.00
9201;DHT22;4635;48.686;9.008;2022-07-06T15:09:12;25.60;1.00
9201;DHT22;4635;48.686;9.008;2022-07-06T15:11:44;25.60;1.00
9201;DHT22;4635;48.686;9.008;2022-07-06T15:14:14;25.90;1.00
9201;DHT22;4635;48.686;9.008;2022-07-06T15:16:43;26.20;1.00
9201;DHT22;4635;48.686;9.008;2022-07-06T15:19:21;26.10;1.00
9201;DHT22;4635;48.686;9.008;2022-07-06T15:22:02;25.80;1.00
9201;DHT22;4635;48.686;9.008;2022-07-06T15:24:33;25.50;1.00
9201;DHT22;4635;48.686;9.008;2022-07-06T15:27:13;25.20;1.00
9201;DHT22;4635;48.686;9.008;2022-07-06T15:30:12;24.70;1.00
9201;DHT22;4635;48.686;9.008;2022-07-06T15:32:47;24.50;1.00
9201;DHT22;4635;48.686;9.008;2022-07-06T15:35:18;24.10;1.00
9201;DHT22;4635;48.686;9.008;2022-07-06T15:37:58;24.10;1.00
9201;DHT22;4635;48.686;9.008;2022-07-06T15:40:28;24.10;1.00
9201;DHT22;4635;48.686;9.008;2022-07-06T15:43:08;24.20;1.00
9201;DHT22;4635;48.686;9.008;2022-07-06T15:45:36;24.10;1.00
9201;DHT22;4635;48.686;9.008;2022-07-06T15:48:07;23.90;1.00
9201;DHT22;4635;48.686;9.008;2022-07-06T15:50:42;23.80;1.00
9201;DHT22;4635;48.686;9.008;2022-07-06T15:53:10;23.70;1.00
9201;DHT22;4635;48.686;9.008;2022-07-06T15:55:38;23.80;1.00
9201;DHT22;4635;48.686;9.008;2022-07-06T15:58:14;23.90;1.00
9201;DHT22;4635;48.686;9.008;2022-07-06T16:00:49;24.00;1.00
9201;DHT22;4635;48.686;9.008;2022-07-06T16:03:22;24.10;1.00
9201;DHT22;4635;48.686;9.008;2022-07-06T16:05:54;24.10;1.00
9201;DHT22;4635;48.686;9.008;2022-07-06T16:08:21;23.90;1.00
9201;DHT22;4635;48.686;9.008;2022-07-06T16:13:36;23.50;1.00
9201;DHT22;4635;48.686;9.008;2022-07-06T16:16:14;23.30;1.00
9201;DHT22;4635;48.686;9.008;2022-07-06T16:18:45;23.30;1.00
9201;DHT22;4635;48.686;9.008;2022-07-06T16:21:12;23.10;1.00
9201;DHT22;4635;48.686;9.008;2022-07-06T16:23:39;23.00;1.00
9201;DHT22;4635;48.686;9.008;2022-07-06T16:26:10;22.90;1.00
9201;DHT22;4635;48.686;9.008;2022-07-06T16:28:41;22.90;1.00
9201;DHT22;4635;48.686;9.008;2022-07-06T16:31:08;22.90;1.00
9201;DHT22;4635;48.686;9.008;2022-07-06T16:33:36;22.90;1.00
9201;DHT22;4635;48.686;9.008;2022-07-06T16:36:08;22.70;1.00
9201;DHT22;4635;48.686;9.008;2022-07-06T16:38:36;23.00;1.00
9201;DHT22;4635;48.686;9.008;2022-07-06T16:41:04;23.10;1.00
9201;DHT22;4635;48.686;9.008;2022-07-06T16:43:31;23.00;1.00
9201;DHT22;4635;48.686;9.008;2022-07-06T16:46:01;23.00;1.00
9201;DHT22;4635;48.686;9.008;2022-07-06T16:48:28;23.00;1.00
9201;DHT22;4635;48.686;9.008;2022-07-06T16:50:55;23.10;1.00
9201;DHT22;4635;48.686;9.008;2022-07-06T16:53:23;23.10;1.00
9201;DHT22;4635;48.686;9.008;2022-07-06T16:55:51;23.00;1.00
9201;DHT22;4635;48.686;9.008;2022-07-06T16:58:18;23.10;1.00
9201;DHT22;4635;48.686;9.008;2022-07-06T17:00:46;23.10;1.00
9201;DHT22;4635;48.686;9.008;2022-07-06T17:03:15;23.10;1.00
9201;DHT22;4635;48.686;9.008;2022-07-06T17:05:42;23.10;1.00
9201;DHT22;4635;48.686;9.008;2022-07-06T17:08:09;22.90;1.00